aviador You're here:

KBBG Decoded Metar

in _UNIDENTIFIED
Report Time2018-07-18 23:45:00
UTC Time2018-07-18 23:54:33
Flight Rules vfr VFR
Wind140° at 04 kt
W.Decomp.*RWY 14: 4.0 kt HW 0.1 kt LCW
W.Rank140° ranks 1
Current wind is below 140° avg. (7.5)
Visibility9999 m
Phenomena:N/A
Clouds:Scattered 150 Hf
Broken 200 Hf
Expected CloudBase > 2,400 ft AGL from Temp-Dew spread
Ceiling20,000 ft
Temp28°C (ISA +16)
Dew Point22°C (70% RH)
Heat Index30.7°C
QNH1015 hPa
Density Alt3,379 ft
Elevation1,302 ft
Report Wrong Elevation
Raw Report
KBBG 182345Z 14004KT 10SM SCT150 BKN200 28/22 A2996=

Extra information for KBBG:More info

Metar Taf Metar & Taf Last 4 Metars F.Rules Stats Wind Profile Meteogram Temp Stats Metar ALERT Operation Metar Decoded Social comments